createdAt,value
2023-01-08T00:00:03.081Z,77
2023-01-08T00:20:03.391Z,77
2023-01-08T00:40:03.130Z,77
2023-01-08T01:00:03.183Z,77
2023-01-08T01:20:03.016Z,78
2023-01-08T01:40:02.898Z,78
2023-01-08T02:00:02.505Z,78
2023-01-08T02:20:03.495Z,78
2023-01-08T02:40:03.235Z,78
2023-01-08T03:00:02.993Z,79
2023-01-08T03:20:02.994Z,79
2023-01-08T03:40:02.852Z,79
2023-01-08T04:00:03.488Z,80
2023-01-08T04:20:03.333Z,80
2023-01-08T04:40:03.195Z,80
2023-01-08T05:00:03.050Z,80
2023-01-08T05:20:02.909Z,80
2023-01-08T05:40:02.679Z,80
2023-01-08T06:00:03.400Z,80
2023-01-08T06:20:03.365Z,80
2023-01-08T06:40:02.999Z,80
2023-01-08T07:00:02.444Z,80
2023-01-08T07:20:02.623Z,80
2023-01-08T07:40:03.333Z,80
2023-01-08T08:00:03.035Z,80
2023-01-08T08:20:03.058Z,79
2023-01-08T08:40:02.846Z,79
2023-01-08T09:00:03.461Z,79
2023-01-08T09:20:02.986Z,80
2023-01-08T09:40:03.605Z,79
2023-01-08T10:00:03.499Z,79
2023-01-08T10:20:03.900Z,78
2023-01-08T10:40:02.829Z,77
2023-01-08T11:00:03.717Z,78
2023-01-08T11:20:03.896Z,80
2023-01-08T11:40:02.776Z,81
2023-01-08T12:00:04.167Z,81
2023-01-08T12:20:04.072Z,81
2023-01-08T12:40:03.918Z,80
2023-01-08T13:00:03.533Z,80
2023-01-08T13:20:04.452Z,79
2023-01-08T13:40:03.219Z,78
2023-01-08T14:00:03.216Z,78
2023-01-08T14:20:07.484Z,79
2023-01-08T14:40:03.148Z,80
2023-01-08T15:00:02.839Z,81
2023-01-08T15:20:02.768Z,82
2023-01-08T15:40:03.213Z,83
2023-01-08T16:00:03.513Z,84
2023-01-08T16:20:02.555Z,84
2023-01-08T16:40:03.289Z,85
2023-01-08T17:00:03.205Z,86
2023-01-08T17:20:03.324Z,86
2023-01-08T17:40:02.813Z,86
2023-01-08T18:00:03.519Z,86
2023-01-08T18:20:02.993Z,87
2023-01-08T18:40:02.633Z,87
2023-01-08T19:00:03.399Z,88
2023-01-08T19:20:02.407Z,88
2023-01-08T19:40:02.894Z,88
2023-01-08T20:00:02.555Z,88
2023-01-08T20:20:04.177Z,88
2023-01-08T20:40:02.923Z,88
2023-01-08T21:00:03.408Z,87
2023-01-08T21:20:03.495Z,87
2023-01-08T21:40:03.203Z,87
2023-01-08T22:00:02.834Z,86
2023-01-08T22:20:02.833Z,86
2023-01-08T22:40:03.516Z,86
2023-01-08T23:00:03.035Z,86
2023-01-08T23:20:03.036Z,86
2023-01-08T23:40:02.648Z,86
